createdAt,value
2022-10-17T00:00:07.957Z,99.99
2022-10-17T00:01:08.024Z,99.99
2022-10-17T00:02:07.965Z,99.99
2022-10-17T00:03:07.958Z,99.99
2022-10-17T00:04:07.963Z,99.99
2022-10-17T00:05:07.952Z,99.99
2022-10-17T00:06:07.915Z,99.99
2022-10-17T00:07:07.893Z,99.99
2022-10-17T00:08:07.899Z,99.99
2022-10-17T00:09:07.923Z,99.99
2022-10-17T00:10:07.856Z,99.99
2022-10-17T00:11:07.851Z,99.99
2022-10-17T00:12:07.883Z,99.99
2022-10-17T00:13:07.859Z,99.99
2022-10-17T00:14:07.834Z,99.99
2022-10-17T00:15:07.830Z,99.99
2022-10-17T00:16:07.806Z,99.99
2022-10-17T00:17:07.819Z,99.99
2022-10-17T00:18:07.818Z,99.99
2022-10-17T00:19:07.783Z,99.99
2022-10-17T00:20:07.754Z,99.99
2022-10-17T00:21:07.756Z,99.99
2022-10-17T00:22:07.732Z,99.99
2022-10-17T00:23:07.758Z,99.99
2022-10-17T00:24:07.744Z,99.99
2022-10-17T00:25:07.716Z,99.99
2022-10-17T00:26:07.687Z,99.99
2022-10-17T00:27:07.687Z,99.99
2022-10-17T00:28:07.680Z,99.99
2022-10-17T00:29:07.780Z,99.99
2022-10-17T00:30:07.671Z,99.99
2022-10-17T00:31:07.643Z,99.99
2022-10-17T00:32:07.625Z,99.99
2022-10-17T00:33:07.649Z,99.99
2022-10-17T00:34:07.621Z,99.99
2022-10-17T00:35:07.641Z,99.99
2022-10-17T00:36:07.620Z,99.99
2022-10-17T00:37:07.573Z,99.99
2022-10-17T00:38:07.572Z,99.99
2022-10-17T00:39:07.569Z,99.99
2022-10-17T00:40:07.539Z,99.99
2022-10-17T00:41:07.568Z,99.99
2022-10-17T00:42:07.537Z,99.99
2022-10-17T00:43:07.525Z,99.99
2022-10-17T00:44:07.520Z,99.99
2022-10-17T00:45:07.491Z,99.99
2022-10-17T00:46:07.490Z,99.99
2022-10-17T00:47:07.502Z,99.99
2022-10-17T00:48:07.476Z,99.99
2022-10-17T00:49:07.472Z,99.99
2022-10-17T00:50:07.455Z,99.99
2022-10-17T00:51:07.451Z,99.99
2022-10-17T00:52:07.412Z,99.99
2022-10-17T00:53:07.415Z,99.99
2022-10-17T00:54:07.422Z,99.99
2022-10-17T00:55:07.422Z,99.99
2022-10-17T00:56:07.380Z,99.99
2022-10-17T00:57:07.374Z,99.99
2022-10-17T00:58:07.362Z,99.99
2022-10-17T00:59:07.361Z,99.99
2022-10-17T01:00:07.353Z,99.99
2022-10-17T01:01:07.382Z,99.99
2022-10-17T01:02:07.319Z,99.99
2022-10-17T01:03:07.326Z,99.99
2022-10-17T01:04:07.300Z,99.99
2022-10-17T01:05:07.328Z,99.99
2022-10-17T01:06:07.290Z,99.99
2022-10-17T01:07:07.261Z,99.99
2022-10-17T01:08:07.271Z,99.99
2022-10-17T01:09:07.250Z,99.99
2022-10-17T01:10:07.240Z,99.99
2022-10-17T01:11:07.260Z,99.99
2022-10-17T01:12:07.239Z,99.99
2022-10-17T01:13:07.213Z,99.99
2022-10-17T01:14:07.211Z,99.99
2022-10-17T01:15:07.183Z,99.99
2022-10-17T01:16:07.182Z,99.99
2022-10-17T01:17:07.208Z,99.99
2022-10-17T01:18:07.160Z,99.99
2022-10-17T01:19:07.130Z,99.99
2022-10-17T01:20:07.153Z,99.99
2022-10-17T01:21:07.146Z,99.99
2022-10-17T01:22:07.143Z,99.99
2022-10-17T01:23:07.110Z,99.99
2022-10-17T01:24:07.174Z,99.99
2022-10-17T01:25:07.079Z,99.99
2022-10-17T01:26:07.091Z,99.99
2022-10-17T01:27:07.072Z,99.99
2022-10-17T01:28:07.079Z,99.99
2022-10-17T01:29:07.022Z,99.99
2022-10-17T01:30:07.031Z,99.99
2022-10-17T01:31:07.027Z,99.99
2022-10-17T01:32:07.026Z,99.99
2022-10-17T01:33:06.998Z,99.99
2022-10-17T01:34:07.003Z,99.99
2022-10-17T01:35:06.975Z,99.99
2022-10-17T01:36:06.979Z,99.99
2022-10-17T01:37:06.967Z,99.99
2022-10-17T01:38:06.935Z,99.99
2022-10-17T01:39:06.946Z,99.99
2022-10-17T01:40:06.936Z,99.99
2022-10-17T01:41:06.912Z,99.99
2022-10-17T01:42:06.933Z,99.99
2022-10-17T01:43:06.875Z,99.99
2022-10-17T01:44:06.884Z,99.99
2022-10-17T01:45:06.855Z,99.99
2022-10-17T01:46:06.891Z,99.99
2022-10-17T01:47:06.835Z,99.99
2022-10-17T01:48:06.840Z,99.99
2022-10-17T01:49:06.837Z,99.99
2022-10-17T01:50:06.824Z,99.99
2022-10-17T01:51:06.797Z,99.99
2022-10-17T01:52:06.805Z,99.99
2022-10-17T01:53:06.797Z,99.99
2022-10-17T01:54:06.766Z,99.99
2022-10-17T01:55:06.771Z,99.99
2022-10-17T01:56:06.757Z,99.99
2022-10-17T01:57:06.737Z,99.99
2022-10-17T01:58:06.760Z,99.99
2022-10-17T01:59:06.735Z,99.99
2022-10-17T02:00:06.713Z,99.99
2022-10-17T02:01:06.756Z,99.99
2022-10-17T02:02:06.692Z,99.99
2022-10-17T02:03:06.670Z,99.99
2022-10-17T02:04:06.678Z,99.99
2022-10-17T02:05:06.643Z,99.99
2022-10-17T02:06:06.683Z,99.99
2022-10-17T02:07:06.636Z,99.99
2022-10-17T02:08:06.612Z,99.99
2022-10-17T02:09:06.612Z,99.99
2022-10-17T02:10:06.618Z,99.99
2022-10-17T02:11:06.589Z,99.99
2022-10-17T02:12:06.613Z,99.99
2022-10-17T02:13:06.573Z,99.99
2022-10-17T02:14:06.645Z,99.99
2022-10-17T02:15:06.558Z,99.99
2022-10-17T02:16:06.548Z,99.99
2022-10-17T02:17:06.517Z,99.99
2022-10-17T02:18:06.566Z,99.99
2022-10-17T02:19:06.512Z,99.99
2022-10-17T02:20:06.499Z,99.99
2022-10-17T02:21:06.522Z,99.99
2022-10-17T02:22:06.511Z,99.99
2022-10-17T02:23:06.506Z,99.99
2022-10-17T02:24:06.457Z,99.99
2022-10-17T02:25:06.442Z,99.99
2022-10-17T02:26:06.442Z,99.99
2022-10-17T02:27:06.438Z,99.99
2022-10-17T02:28:06.454Z,99.99
2022-10-17T02:29:06.407Z,99.99
2022-10-17T02:30:06.403Z,99.99
2022-10-17T02:31:06.382Z,99.99
2022-10-17T02:32:06.379Z,99.99
2022-10-17T02:33:06.377Z,99.99
2022-10-17T02:34:06.350Z,99.99
2022-10-17T02:35:06.355Z,99.99
2022-10-17T02:36:06.334Z,99.99
2022-10-17T02:37:06.303Z,99.99
2022-10-17T02:38:06.319Z,99.99
2022-10-17T02:39:06.298Z,99.99
2022-10-17T02:40:06.311Z,99.99
2022-10-17T02:41:06.276Z,99.99
2022-10-17T02:42:06.293Z,99.99
2022-10-17T02:43:06.255Z,99.99
2022-10-17T02:44:06.279Z,99.99
2022-10-17T02:45:06.252Z,99.99
2022-10-17T02:46:06.230Z,99.99
2022-10-17T02:47:06.206Z,99.99
2022-10-17T02:48:06.212Z,99.99
2022-10-17T02:49:06.191Z,99.99
2022-10-17T02:50:06.202Z,99.99
2022-10-17T02:51:06.191Z,99.99
2022-10-17T02:52:06.196Z,99.99
2022-10-17T02:53:06.136Z,99.99
2022-10-17T02:54:06.164Z,99.99
2022-10-17T02:55:06.127Z,99.99
2022-10-17T02:56:06.147Z,99.99
2022-10-17T02:57:06.129Z,99.99
2022-10-17T02:58:06.090Z,99.99
2022-10-17T02:59:06.107Z,99.99
2022-10-17T03:00:06.077Z,99.99
2022-10-17T03:01:06.125Z,99.99
2022-10-17T03:02:06.051Z,99.99
2022-10-17T03:03:06.047Z,99.99
2022-10-17T03:04:06.037Z,99.99
2022-10-17T03:05:06.029Z,99.99
2022-10-17T03:06:06.028Z,99.99
2022-10-17T03:07:05.995Z,99.99
2022-10-17T03:08:06.013Z,99.99
2022-10-17T03:09:05.990Z,99.99
2022-10-17T03:10:05.991Z,99.99
2022-10-17T03:11:05.968Z,99.99
2022-10-17T03:12:05.972Z,99.99
2022-10-17T03:13:05.954Z,99.99
2022-10-17T03:14:05.939Z,99.99
2022-10-17T03:15:05.933Z,99.99
2022-10-17T03:16:05.929Z,99.99
2022-10-17T03:17:05.889Z,99.99
2022-10-17T03:18:05.901Z,99.99
2022-10-17T03:19:05.867Z,99.99
2022-10-17T03:20:05.909Z,99.99
2022-10-17T03:21:05.907Z,99.99
2022-10-17T03:22:05.866Z,99.99
2022-10-17T03:23:05.829Z,99.99
2022-10-17T03:24:05.830Z,99.99
2022-10-17T03:25:05.843Z,99.99
2022-10-17T03:26:05.840Z,99.99
2022-10-17T03:27:05.797Z,99.99
2022-10-17T03:28:05.803Z,99.99
2022-10-17T03:29:05.812Z,99.99
2022-10-17T03:30:05.769Z,99.99
2022-10-17T03:31:05.812Z,99.99
2022-10-17T03:32:05.770Z,99.99
2022-10-17T03:33:05.754Z,99.99
2022-10-17T03:34:05.742Z,99.99
2022-10-17T03:35:05.705Z,99.99
2022-10-17T03:36:05.719Z,99.99
2022-10-17T03:37:05.682Z,99.99
2022-10-17T03:38:05.685Z,99.99
2022-10-17T03:39:05.675Z,99.99
2022-10-17T03:40:05.667Z,99.99
2022-10-17T03:41:05.656Z,99.99
2022-10-17T03:42:05.667Z,99.99
2022-10-17T03:43:05.630Z,99.99
2022-10-17T03:44:05.617Z,99.99
2022-10-17T03:45:05.605Z,99.99
2022-10-17T03:46:05.685Z,99.99
2022-10-17T03:47:08.146Z,99.99
2022-10-17T03:48:05.612Z,99.99
2022-10-17T03:49:05.574Z,99.99
2022-10-17T03:50:05.564Z,99.99
2022-10-17T03:51:05.536Z,99.99
2022-10-17T03:52:05.547Z,99.99
2022-10-17T03:53:05.511Z,99.99
2022-10-17T03:54:05.520Z,99.99
2022-10-17T03:55:05.500Z,99.99
2022-10-17T03:56:05.483Z,99.99
2022-10-17T03:57:05.500Z,99.99
2022-10-17T03:58:05.485Z,99.99
2022-10-17T03:59:05.463Z,99.99
2022-10-17T04:00:05.457Z,99.99
2022-10-17T04:01:05.498Z,99.99
2022-10-17T04:02:05.476Z,99.99
2022-10-17T04:03:05.416Z,99.99
2022-10-17T04:04:05.444Z,99.99
2022-10-17T04:05:05.431Z,99.99
2022-10-17T04:06:05.426Z,99.99
2022-10-17T04:07:05.365Z,99.99
2022-10-17T04:08:05.391Z,99.99
2022-10-17T04:09:05.363Z,99.99
2022-10-17T04:10:05.381Z,99.99
2022-10-17T04:11:05.346Z,99.99
2022-10-17T04:12:05.348Z,99.99
2022-10-17T04:13:05.315Z,99.99
2022-10-17T04:14:05.301Z,99.99
2022-10-17T04:15:05.287Z,99.99
2022-10-17T04:16:05.318Z,99.99
2022-10-17T04:17:05.274Z,99.99
2022-10-17T04:19:05.248Z,99.99
2022-10-17T04:20:05.250Z,99.99
2022-10-17T04:21:05.240Z,99.99
2022-10-17T04:22:05.225Z,99.99
2022-10-17T04:23:05.209Z,99.99
2022-10-17T04:24:05.206Z,99.99
2022-10-17T04:25:05.336Z,99.99
2022-10-17T04:26:05.185Z,99.99
2022-10-17T04:27:05.158Z,99.99
2022-10-17T04:28:05.181Z,99.99
2022-10-17T04:29:05.184Z,99.99
2022-10-17T04:30:05.142Z,99.99
2022-10-17T04:31:05.131Z,99.99
2022-10-17T04:32:05.120Z,99.99
2022-10-17T04:33:05.117Z,99.99
2022-10-17T04:34:05.119Z,99.99
2022-10-17T04:35:05.107Z,99.99
2022-10-17T04:36:05.076Z,99.99
2022-10-17T04:37:05.063Z,99.99
2022-10-17T04:38:05.072Z,99.99
2022-10-17T04:39:05.062Z,99.99
2022-10-17T04:40:05.051Z,99.99
2022-10-17T04:41:05.017Z,99.99
2022-10-17T04:42:05.087Z,99.99
2022-10-17T04:43:05.001Z,99.99
2022-10-17T04:44:05.004Z,99.99
2022-10-17T04:45:04.988Z,99.99
2022-10-17T04:46:04.984Z,99.99
2022-10-17T04:47:05.886Z,99.99
2022-10-17T04:48:04.965Z,99.99
2022-10-17T04:49:04.926Z,99.99
2022-10-17T04:50:05.029Z,99.99
2022-10-17T04:51:04.955Z,99.99
2022-10-17T04:52:04.944Z,99.99
2022-10-17T04:53:04.985Z,99.99
2022-10-17T04:54:04.914Z,99.99
2022-10-17T04:55:04.866Z,99.99
2022-10-17T04:56:04.866Z,99.99
2022-10-17T04:57:04.854Z,99.99
2022-10-17T04:58:04.871Z,99.99
2022-10-17T04:59:04.827Z,99.99
2022-10-17T05:00:04.875Z,99.99
2022-10-17T05:01:04.899Z,99.99
2022-10-17T05:02:04.807Z,99.99
2022-10-17T05:03:04.802Z,99.99
2022-10-17T05:04:04.790Z,99.99
2022-10-17T05:05:04.758Z,99.99
2022-10-17T05:06:04.800Z,99.99
2022-10-17T05:07:04.767Z,99.99
2022-10-17T05:08:04.938Z,99.99
2022-10-17T05:09:04.746Z,99.99
2022-10-17T05:10:04.711Z,99.99
2022-10-17T05:11:04.702Z,99.99
2022-10-17T05:12:06.710Z,99.99
2022-10-17T05:13:04.693Z,99.99
2022-10-17T05:14:05.330Z,99.99
2022-10-17T05:15:04.648Z,99.99
2022-10-17T05:16:04.616Z,99.99
2022-10-17T05:17:04.652Z,99.99
2022-10-17T05:18:04.648Z,99.99
2022-10-17T05:19:04.629Z,99.99
2022-10-17T05:20:04.615Z,99.99
2022-10-17T05:21:04.621Z,99.99
2022-10-17T05:22:04.586Z,99.99
2022-10-17T05:23:04.617Z,99.99
2022-10-17T05:24:04.562Z,99.99
2022-10-17T05:25:04.580Z,99.99
2022-10-17T05:26:04.553Z,99.99
2022-10-17T05:27:04.490Z,99.99
2022-10-17T05:28:04.528Z,99.99
2022-10-17T05:29:04.531Z,99.99
2022-10-17T05:30:04.470Z,99.99
2022-10-17T05:31:04.441Z,99.99
2022-10-17T05:32:04.427Z,99.99
2022-10-17T05:33:04.477Z,99.99
2022-10-17T05:34:04.417Z,99.99
2022-10-17T05:35:04.413Z,99.99
2022-10-17T05:36:04.374Z,99.99
2022-10-17T05:37:04.378Z,99.99
2022-10-17T05:38:04.375Z,99.99
2022-10-17T05:39:04.365Z,99.99
2022-10-17T05:40:04.412Z,99.99
2022-10-17T05:41:04.343Z,99.99
2022-10-17T05:42:04.333Z,99.99
2022-10-17T05:43:04.369Z,99.99
2022-10-17T05:44:05.645Z,99.99
2022-10-17T05:45:04.292Z,99.99
2022-10-17T05:46:04.322Z,99.99
2022-10-17T05:47:04.317Z,99.99
2022-10-17T05:48:04.256Z,99.99
2022-10-17T05:49:14.686Z,99.99
2022-10-17T05:50:04.264Z,99.99
2022-10-17T05:51:04.257Z,99.99
2022-10-17T05:52:04.223Z,99.99
2022-10-17T05:53:04.918Z,99.99
2022-10-17T05:54:29.926Z,99.99
2022-10-17T05:55:08.780Z,99.99
2022-10-17T05:57:03.794Z,99.99
2022-10-17T05:57:08.704Z,99.99
2022-10-17T05:58:11.711Z,99.99
2022-10-17T05:59:08.711Z,99.99
2022-10-17T06:00:08.714Z,99.99
2022-10-17T06:01:10.763Z,99.99
2022-10-17T06:02:08.737Z,99.99
2022-10-17T06:03:08.650Z,99.99
2022-10-17T06:04:08.679Z,99.99
2022-10-17T06:05:08.665Z,99.99
2022-10-17T06:06:08.637Z,99.99
2022-10-17T06:07:08.643Z,99.99
2022-10-17T06:08:08.626Z,99.99
2022-10-17T06:09:08.590Z,99.99
2022-10-17T06:10:08.585Z,99.99
2022-10-17T06:11:10.232Z,99.99
2022-10-17T06:12:08.586Z,99.99
2022-10-17T06:13:08.557Z,99.99
2022-10-17T06:14:08.526Z,99.99
2022-10-17T06:15:08.539Z,99.99
2022-10-17T06:16:08.600Z,99.99
2022-10-17T06:17:13.384Z,99.99
2022-10-17T06:18:08.549Z,99.99
2022-10-17T06:19:08.510Z,99.99
2022-10-17T06:20:08.526Z,99.99
2022-10-17T06:21:08.498Z,99.99
2022-10-17T06:22:08.507Z,99.99
2022-10-17T06:23:08.511Z,99.99
2022-10-17T06:24:08.484Z,99.99
2022-10-17T06:25:08.430Z,99.99
2022-10-17T06:26:08.434Z,99.99
2022-10-17T06:27:11.713Z,99.99
2022-10-17T06:28:08.417Z,99.99
2022-10-17T06:29:08.446Z,99.99
2022-10-17T06:30:08.397Z,99.99
2022-10-17T06:31:08.357Z,99.99
2022-10-17T06:32:11.110Z,99.99
2022-10-17T06:33:08.414Z,99.99
2022-10-17T06:34:08.345Z,99.99
2022-10-17T06:35:08.321Z,99.99
2022-10-17T06:36:08.314Z,99.99
2022-10-17T06:37:08.292Z,99.99
2022-10-17T06:38:08.360Z,99.99
2022-10-17T06:39:08.270Z,99.99
2022-10-17T06:40:08.302Z,99.99
2022-10-17T06:41:08.327Z,99.99
2022-10-17T06:42:08.263Z,99.99
2022-10-17T06:43:08.226Z,99.99
2022-10-17T06:44:08.263Z,99.99
2022-10-17T06:45:08.233Z,99.99
2022-10-17T06:46:08.236Z,99.99
2022-10-17T06:47:08.199Z,99.99
2022-10-17T06:48:08.191Z,99.99
2022-10-17T06:49:08.179Z,99.99
2022-10-17T06:50:08.208Z,99.99
2022-10-17T06:51:08.187Z,99.99
2022-10-17T06:52:08.140Z,99.99
2022-10-17T06:53:08.170Z,99.99
2022-10-17T06:54:08.119Z,99.99
2022-10-17T06:55:08.113Z,99.99
2022-10-17T06:56:08.120Z,99.99
2022-10-17T06:57:08.162Z,99.99
2022-10-17T06:58:08.114Z,99.99
2022-10-17T06:59:08.116Z,99.99
2022-10-17T07:00:08.060Z,99.99
2022-10-17T07:02:08.037Z,99.99
2022-10-17T07:03:08.034Z,99.99
2022-10-17T07:04:08.076Z,99.99
2022-10-17T07:05:08.025Z,99.99
2022-10-17T07:06:08.003Z,99.99
2022-10-17T07:07:07.986Z,99.99
2022-10-17T07:08:08.029Z,99.99
2022-10-17T07:09:07.955Z,99.99
2022-10-17T07:10:08.003Z,99.99
2022-10-17T07:11:07.942Z,99.99
2022-10-17T07:12:07.950Z,99.99
2022-10-17T07:13:07.944Z,99.99
2022-10-17T07:14:07.932Z,99.99
2022-10-17T07:15:07.906Z,99.99
2022-10-17T07:16:07.915Z,99.99
2022-10-17T07:17:07.934Z,99.99
2022-10-17T07:18:07.893Z,99.99
2022-10-17T07:19:07.852Z,99.99
2022-10-17T07:20:07.892Z,99.99
2022-10-17T07:21:07.822Z,99.99
2022-10-17T07:22:07.852Z,99.99
2022-10-17T07:23:07.819Z,99.99
2022-10-17T07:24:07.835Z,99.99
2022-10-17T07:25:07.809Z,99.99
2022-10-17T07:26:07.832Z,99.99
2022-10-17T07:27:07.800Z,99.99
2022-10-17T07:28:07.788Z,99.99
2022-10-17T07:29:07.880Z,99.99
2022-10-17T07:30:07.794Z,99.99
2022-10-17T07:31:07.737Z,99.99
2022-10-17T07:32:07.734Z,99.99
2022-10-17T07:33:07.726Z,99.99
2022-10-17T07:34:07.707Z,99.99
2022-10-17T07:35:07.708Z,99.99
2022-10-17T07:36:07.704Z,99.99
2022-10-17T07:37:07.666Z,99.99
2022-10-17T07:38:07.675Z,99.99
2022-10-17T07:39:07.719Z,99.99
2022-10-17T07:40:07.707Z,99.99
2022-10-17T07:41:07.616Z,99.99
2022-10-17T07:42:07.655Z,99.99
2022-10-17T07:43:07.613Z,99.99
2022-10-17T07:44:07.621Z,99.99
2022-10-17T07:45:07.588Z,99.99
2022-10-17T07:46:07.592Z,99.99
2022-10-17T07:47:07.582Z,99.99
2022-10-17T07:48:07.557Z,99.99
2022-10-17T07:49:07.554Z,99.99
2022-10-17T07:50:07.553Z,99.99
2022-10-17T07:51:07.516Z,99.99
2022-10-17T07:52:07.536Z,99.99
2022-10-17T07:53:07.511Z,99.99
2022-10-17T07:54:07.504Z,99.99
2022-10-17T07:55:07.492Z,99.99
2022-10-17T07:56:07.501Z,99.99
2022-10-17T07:57:07.457Z,99.99
2022-10-17T07:58:07.453Z,99.99
2022-10-17T07:59:09.398Z,99.99
2022-10-17T08:00:07.436Z,99.99
2022-10-17T08:01:09.516Z,99.99
2022-10-17T08:02:07.417Z,99.99
2022-10-17T08:03:07.466Z,99.99
2022-10-17T08:04:07.414Z,99.99
2022-10-17T08:05:07.417Z,99.99
2022-10-17T08:06:07.389Z,99.99
2022-10-17T08:07:20.996Z,99.99
2022-10-17T08:08:07.347Z,99.99
2022-10-17T08:09:07.348Z,99.99
2022-10-17T08:11:07.315Z,99.99
2022-10-17T08:12:07.314Z,99.99
2022-10-17T08:13:07.293Z,99.99
2022-10-17T08:14:07.333Z,99.99
2022-10-17T08:15:07.316Z,99.99
2022-10-17T08:16:07.293Z,99.99
2022-10-17T08:17:07.241Z,99.99
2022-10-17T08:18:07.241Z,99.99
2022-10-17T08:19:10.261Z,99.99
2022-10-17T08:20:07.211Z,99.99
2022-10-17T08:21:07.215Z,99.99
2022-10-17T08:22:07.241Z,99.99
2022-10-17T08:23:07.197Z,99.99
2022-10-17T08:24:07.201Z,99.99
2022-10-17T08:25:07.159Z,99.99
2022-10-17T08:26:07.202Z,99.99
2022-10-17T08:27:07.162Z,99.99
2022-10-17T08:29:07.161Z,99.99
2022-10-17T08:30:07.121Z,99.99
2022-10-17T08:31:07.095Z,99.99
2022-10-17T08:32:09.583Z,99.99
2022-10-17T08:33:07.121Z,99.99
2022-10-17T08:34:07.058Z,99.99
2022-10-17T08:35:07.066Z,99.99
2022-10-17T08:36:07.081Z,99.99
2022-10-17T08:37:07.061Z,99.99
2022-10-17T08:38:09.099Z,99.99
2022-10-17T08:39:07.080Z,99.99
2022-10-17T08:40:07.018Z,99.99
2022-10-17T08:41:07.013Z,99.99
2022-10-17T08:42:06.984Z,99.99
2022-10-17T08:43:07.242Z,99.89
2022-10-17T08:44:06.958Z,98.79
2022-10-17T08:45:07.041Z,97.78
2022-10-17T08:46:06.997Z,97.23
2022-10-17T08:47:06.937Z,95.92
2022-10-17T08:48:06.932Z,95.77
2022-10-17T08:49:10.051Z,95.47
2022-10-17T08:50:06.912Z,94.76
2022-10-17T08:51:06.878Z,94.01
2022-10-17T08:52:06.918Z,93.81
2022-10-17T08:53:06.876Z,93.51
2022-10-17T08:54:06.852Z,94.72
2022-10-17T08:55:06.874Z,93.91
2022-10-17T08:56:07.170Z,92.91
2022-10-17T08:57:06.823Z,92.71
2022-10-17T08:58:06.823Z,91.70
2022-10-17T08:59:06.796Z,92.20
2022-10-17T09:00:06.809Z,91.46
2022-10-17T09:01:10.518Z,90.85
2022-10-17T09:02:06.794Z,91.25
2022-10-17T09:03:06.861Z,90.85
2022-10-17T09:04:06.765Z,90.91
2022-10-17T09:05:06.755Z,90.41
2022-10-17T09:06:06.735Z,90.00
2022-10-17T09:07:06.738Z,89.80
2022-10-17T09:08:06.793Z,89.60
2022-10-17T09:09:06.724Z,89.50
2022-10-17T09:10:06.699Z,89.40
2022-10-17T09:11:06.675Z,89.00
2022-10-17T09:12:06.682Z,87.99
2022-10-17T09:13:07.830Z,87.95
2022-10-17T09:14:06.682Z,88.45
2022-10-17T09:15:06.632Z,88.85
2022-10-17T09:16:06.647Z,87.95
2022-10-17T09:17:06.605Z,87.75
2022-10-17T09:18:06.622Z,87.24
2022-10-17T09:19:06.604Z,87.51
2022-10-17T09:20:06.611Z,87.41
2022-10-17T09:21:06.579Z,87.51
2022-10-17T09:22:06.563Z,87.37
2022-10-17T09:23:06.573Z,87.06
2022-10-17T09:24:09.582Z,87.06
2022-10-17T09:25:06.566Z,86.96
2022-10-17T09:26:06.518Z,86.42
2022-10-17T09:27:06.516Z,85.66
2022-10-17T09:28:06.509Z,85.72
2022-10-17T09:29:06.560Z,85.25
2022-10-17T09:30:07.243Z,85.11
2022-10-17T09:31:06.508Z,85.72
2022-10-17T09:32:06.451Z,85.82
2022-10-17T09:33:06.467Z,85.72
2022-10-17T09:34:06.447Z,85.61
2022-10-17T09:35:06.457Z,85.61
2022-10-17T09:36:06.411Z,85.02
2022-10-17T09:37:06.417Z,85.02
2022-10-17T09:38:06.409Z,84.91
2022-10-17T09:39:06.398Z,85.31
2022-10-17T09:40:06.393Z,84.41
2022-10-17T09:41:19.905Z,85.61
2022-10-17T09:42:06.449Z,85.72
2022-10-17T09:43:06.380Z,85.22
2022-10-17T09:44:06.388Z,85.22
2022-10-17T09:45:06.385Z,84.51
2022-10-17T09:46:06.345Z,85.31
2022-10-17T09:47:06.434Z,84.67
2022-10-17T09:48:06.343Z,84.17
2022-10-17T09:49:06.386Z,84.77
2022-10-17T09:50:06.400Z,83.77
2022-10-17T09:51:22.024Z,83.87
2022-10-17T09:52:06.248Z,84.17
2022-10-17T09:53:06.257Z,84.27
2022-10-17T09:54:06.304Z,84.67
2022-10-17T09:55:06.254Z,84.57
2022-10-17T09:56:06.299Z,84.37
2022-10-17T09:57:06.259Z,85.27
2022-10-17T09:58:06.220Z,84.88
2022-10-17T09:59:09.285Z,85.02
2022-10-17T10:00:06.331Z,85.02
2022-10-17T10:01:06.301Z,84.51
2022-10-17T10:02:06.212Z,84.51
2022-10-17T10:03:06.168Z,84.41
2022-10-17T10:04:06.158Z,84.91
2022-10-17T10:05:07.079Z,85.72
2022-10-17T10:06:06.141Z,84.61
2022-10-17T10:07:06.116Z,84.81
2022-10-17T10:08:06.076Z,85.31
2022-10-17T10:09:06.074Z,85.11
2022-10-17T10:10:06.054Z,85.61
2022-10-17T10:11:06.560Z,85.92
2022-10-17T10:12:06.153Z,84.61
2022-10-17T10:13:06.085Z,84.91
2022-10-17T10:14:06.000Z,85.11
2022-10-17T10:15:06.011Z,85.72
2022-10-17T10:16:05.981Z,86.22
2022-10-17T10:17:06.054Z,85.56
2022-10-17T10:18:05.953Z,85.86
2022-10-17T10:19:08.489Z,86.36
2022-10-17T10:20:05.960Z,86.26
2022-10-17T10:21:05.941Z,86.36
2022-10-17T10:22:05.943Z,84.85
2022-10-17T10:23:05.911Z,85.16
2022-10-17T10:24:05.934Z,85.56
2022-10-17T10:25:05.886Z,85.96
2022-10-17T10:26:05.865Z,86.26
2022-10-17T10:27:05.895Z,85.46
2022-10-17T10:28:05.852Z,85.96
2022-10-17T10:29:05.915Z,86.00
2022-10-17T10:30:05.850Z,85.70
2022-10-17T10:31:05.822Z,86.20
2022-10-17T10:32:05.818Z,85.30
2022-10-17T10:33:05.845Z,85.70
2022-10-17T10:34:05.794Z,85.60
2022-10-17T10:35:05.777Z,86.00
2022-10-17T10:36:05.788Z,86.30
2022-10-17T10:37:05.769Z,86.20
2022-10-17T10:38:05.745Z,86.40
2022-10-17T10:39:05.767Z,86.40
2022-10-17T10:40:05.722Z,85.84
2022-10-17T10:41:05.739Z,86.34
2022-10-17T10:42:05.700Z,86.24
2022-10-17T10:43:05.860Z,86.54
2022-10-17T10:44:05.689Z,86.54
2022-10-17T10:45:05.679Z,86.04
2022-10-17T10:46:05.663Z,86.44
2022-10-17T10:47:05.641Z,86.34
2022-10-17T10:48:05.678Z,86.14
2022-10-17T10:49:05.650Z,86.14
2022-10-17T10:50:05.618Z,86.65
2022-10-17T10:51:05.624Z,86.70
2022-10-17T10:52:05.598Z,86.04
2022-10-17T10:53:05.610Z,86.20
2022-10-17T10:54:05.577Z,86.70
2022-10-17T10:55:05.577Z,86.20
2022-10-17T10:56:05.552Z,85.80
2022-10-17T10:57:05.575Z,86.30
2022-10-17T10:58:05.913Z,86.20
2022-10-17T10:59:05.518Z,85.39
2022-10-17T11:00:05.520Z,84.75
2022-10-17T11:01:05.583Z,84.45
2022-10-17T11:02:05.490Z,84.75
2022-10-17T11:03:06.817Z,84.95
2022-10-17T11:04:05.460Z,84.15
2022-10-17T11:05:05.478Z,84.15
2022-10-17T11:06:05.434Z,84.61
2022-10-17T11:07:05.485Z,84.11
2022-10-17T11:08:05.455Z,83.71
2022-10-17T11:09:05.432Z,84.11
2022-10-17T11:10:05.405Z,84.31
2022-10-17T11:11:05.434Z,84.61
2022-10-17T11:12:05.413Z,84.51
2022-10-17T11:13:05.363Z,84.95
2022-10-17T11:14:05.377Z,85.05
2022-10-17T11:15:05.361Z,85.16
2022-10-17T11:16:05.378Z,85.25
2022-10-17T11:17:05.325Z,85.56
2022-10-17T11:18:05.316Z,85.96
2022-10-17T11:19:05.366Z,85.66
2022-10-17T11:20:05.299Z,85.16
2022-10-17T11:21:05.306Z,85.66
2022-10-17T11:22:05.265Z,85.56
2022-10-17T11:23:05.278Z,85.66
2022-10-17T11:24:07.031Z,85.05
2022-10-17T11:25:05.255Z,85.56
2022-10-17T11:26:05.244Z,85.30
2022-10-17T11:27:05.255Z,85.19
2022-10-17T11:28:05.503Z,85.60
2022-10-17T11:29:05.288Z,86.00
2022-10-17T11:30:05.215Z,86.66
2022-10-17T11:31:07.269Z,86.70
2022-10-17T11:32:05.203Z,86.80
2022-10-17T11:33:05.225Z,87.71
2022-10-17T11:34:05.156Z,88.01
2022-10-17T11:35:05.161Z,87.91
2022-10-17T11:36:05.181Z,87.41
2022-10-17T11:37:05.217Z,87.81
2022-10-17T11:38:05.109Z,87.21
2022-10-17T11:39:05.129Z,87.71
2022-10-17T11:40:05.092Z,88.21
2022-10-17T11:41:05.106Z,88.11
2022-10-17T11:42:05.119Z,87.95
2022-10-17T11:43:05.100Z,88.05
2022-10-17T11:44:05.073Z,88.95
2022-10-17T11:45:05.075Z,89.86
2022-10-17T11:46:05.027Z,89.96
2022-10-17T11:47:05.017Z,90.06
2022-10-17T11:48:05.031Z,90.36
2022-10-17T11:49:05.098Z,90.52
2022-10-17T11:52:04.980Z,90.97
2022-10-17T11:53:05.073Z,91.67
2022-10-17T11:54:04.982Z,91.67
2022-10-17T11:55:04.959Z,91.37
2022-10-17T11:56:04.936Z,91.47
2022-10-17T11:57:04.921Z,91.57
2022-10-17T11:58:04.911Z,92.07
2022-10-17T11:59:04.932Z,91.87
2022-10-17T12:00:04.900Z,92.07
2022-10-17T12:01:04.869Z,92.17
2022-10-17T12:02:04.837Z,91.97
2022-10-17T12:03:04.863Z,92.37
2022-10-17T12:04:04.899Z,92.77
2022-10-17T12:05:04.847Z,92.47
2022-10-17T12:06:04.870Z,92.33
2022-10-17T12:07:04.827Z,92.27
2022-10-17T12:08:04.795Z,92.33
2022-10-17T12:09:04.772Z,92.63
2022-10-17T12:10:04.758Z,92.63
2022-10-17T12:11:04.775Z,92.53
2022-10-17T12:12:04.737Z,92.33
2022-10-17T12:13:04.743Z,92.43
2022-10-17T12:14:06.164Z,92.73
2022-10-17T12:15:04.719Z,92.53
2022-10-17T12:16:04.689Z,92.03
2022-10-17T12:17:04.740Z,91.93
2022-10-17T12:18:04.726Z,91.99
2022-10-17T12:19:04.672Z,91.99
2022-10-17T12:20:04.659Z,91.99
2022-10-17T12:21:04.676Z,91.99
2022-10-17T12:22:04.655Z,91.99
2022-10-17T12:23:04.743Z,92.29
2022-10-17T12:24:04.963Z,92.08
2022-10-17T12:25:04.616Z,91.38
2022-10-17T12:26:05.372Z,91.68
2022-10-17T12:27:04.590Z,92.33
2022-10-17T12:28:04.600Z,92.53
2022-10-17T12:29:04.720Z,92.63
2022-10-17T12:30:04.570Z,92.53
2022-10-17T12:31:04.665Z,92.23
2022-10-17T12:32:04.559Z,92.73
2022-10-17T12:33:06.548Z,92.93
2022-10-17T12:34:04.504Z,92.97
2022-10-17T12:35:04.518Z,93.08
2022-10-17T12:36:04.489Z,93.28
2022-10-17T12:37:04.812Z,93.28
2022-10-17T12:38:04.462Z,93.28
2022-10-17T12:39:04.472Z,93.68
2022-10-17T12:40:04.451Z,93.88
2022-10-17T12:41:04.472Z,94.28
2022-10-17T12:42:04.430Z,94.43
2022-10-17T12:43:04.417Z,94.73
2022-10-17T12:44:04.455Z,94.83
2022-10-17T12:45:04.438Z,95.23
2022-10-17T12:46:04.411Z,95.43
2022-10-17T12:47:04.379Z,95.64
2022-10-17T12:48:04.348Z,95.84
2022-10-17T12:49:04.353Z,95.64
2022-10-17T12:50:04.335Z,95.53
2022-10-17T12:51:30.836Z,95.64
2022-10-17T12:52:04.339Z,95.73
2022-10-17T12:53:04.336Z,95.64
2022-10-17T12:54:04.345Z,95.73
2022-10-17T12:55:12.681Z,95.73
2022-10-17T12:56:04.321Z,95.94
2022-10-17T12:57:04.288Z,95.94
2022-10-17T12:58:04.274Z,95.94